EWG3CA LSZH-LEPA
Flight info
| Callsign | EWG3CA |
|---|---|
| Flight time | N/A |
| Altitude | 35000 |
| Route | VEBIT T50 ROTOS Z669 ULMES DCT VADAR DCT GEVEA DCT INCUS DCT BALSI DCT RETNO DCT TUPOX DCT MTG DCT DIVKO DCT VATIR DCT PIVUS DCT BODEQ DCT VERSO L129 LUNIK |
| Aircraft | A320/M-SDE3FGHIRWY/LB1 |
Departure
| Time | N/A |
|---|---|
| Airport | Zürich Airport (LSZH) |
Arrival
| Time | 2026-05-06 09:03 |
|---|---|
| Airport | Palma de Mallorca Airport (LEPA) |
| Time | Latitude | Longitude | Altitude | Speed | Heading |
|---|---|---|---|---|---|
| 2026-05-06 08:58 | 39.65811 | 2.98036 | 3638 ft | 225 kts | 240° |
| 2026-05-06 08:59 | 39.65032 | 2.96329 | 3521 ft | 216 kts | 238° |
| 2026-05-06 08:59 | 39.64258 | 2.94682 | 3303 ft | 211 kts | 238° |
| 2026-05-06 08:59 | 39.63503 | 2.93076 | 3007 ft | 205 kts | 238° |
| 2026-05-06 08:59 | 39.62778 | 2.91534 | 2744 ft | 195 kts | 238° |
| 2026-05-06 09:00 | 39.62081 | 2.90052 | 2481 ft | 191 kts | 237° |
| 2026-05-06 09:00 | 39.61391 | 2.88585 | 2227 ft | 190 kts | 238° |
| 2026-05-06 09:00 | 39.60707 | 2.87130 | 1970 ft | 184 kts | 238° |
| 2026-05-06 09:00 | 39.60069 | 2.85774 | 1753 ft | 166 kts | 238° |
| 2026-05-06 09:01 | 39.59490 | 2.84543 | 1524 ft | 154 kts | 238° |
| 2026-05-06 09:01 | 39.58937 | 2.83370 | 1291 ft | 151 kts | 238° |
| 2026-05-06 09:01 | 39.58389 | 2.82231 | 1087 ft | 147 kts | 238° |
| 2026-05-06 09:01 | 39.57856 | 2.81103 | 878 ft | 147 kts | 239° |
| 2026-05-06 09:02 | 39.57332 | 2.79981 | 723 ft | 145 kts | 238° |
| 2026-05-06 09:02 | 39.56796 | 2.78844 | 522 ft | 149 kts | 238° |
| 2026-05-06 09:02 | 39.56258 | 2.77703 | 331 ft | 147 kts | 239° |
| 2026-05-06 09:02 | 39.55737 | 2.76587 | 151 ft | 146 kts | 240° |
| 2026-05-06 09:03 | 39.55226 | 2.75493 | 38 ft | 129 kts | 239° |
| 2026-05-06 09:03 | 39.54852 | 2.74700 | 37 ft | 78 kts | 238° |
| 2026-05-06 09:03 | 39.54654 | 2.74273 | 38 ft | 42 kts | 239° |
| 2026-05-06 09:03 | 39.54562 | 2.73997 | 38 ft | 22 kts | 267° |
| 2026-05-06 09:04 | 39.54550 | 2.73815 | 38 ft | 17 kts | 270° |
| 2026-05-06 09:04 | 39.54613 | 2.73765 | 38 ft | 14 kts | 41° |
| 2026-05-06 09:04 | 39.54672 | 2.73879 | 38 ft | 16 kts | 58° |
| 2026-05-06 09:04 | 39.54735 | 2.74010 | 38 ft | 18 kts | 58° |
| 2026-05-06 09:05 | 39.54819 | 2.74125 | 38 ft | 18 kts | 357° |
| 2026-05-06 09:05 | 39.54928 | 2.74045 | 37 ft | 17 kts | 328° |
| 2026-05-06 09:05 | 39.54923 | 2.73962 | 38 ft | 10 kts | 210° |
| 2026-05-06 09:05 | 39.54864 | 2.73979 | 38 ft | 7 kts | 185° |
| 2026-05-06 09:06 | 39.54854 | 2.73929 | 38 ft | 5 kts | 270° |
| 2026-05-06 09:06 | 39.54853 | 2.73882 | 38 ft | 6 kts | 268° |
| 2026-05-06 09:06 | 39.54852 | 2.73846 | 38 ft | 2 kts | 266° |
| 2026-05-06 09:06 | 39.54851 | 2.73839 | 38 ft | 0 kts | 266° |